createdAt,value
2018-01-26T00:00:03.512Z,2.33
2018-01-26T00:02:31.651Z,2.00
2018-01-26T00:05:00.059Z,2.60
2018-01-26T00:07:28.501Z,3.13
2018-01-26T00:09:56.896Z,3.00
2018-01-26T00:12:25.307Z,2.80
2018-01-26T00:14:53.714Z,3.10
2018-01-26T00:17:22.100Z,3.30
2018-01-26T00:19:50.730Z,3.10
2018-01-26T00:22:19.210Z,3.33
2018-01-26T00:24:47.664Z,3.50
2018-01-26T00:27:16.039Z,3.60
2018-01-26T00:29:44.404Z,6.83
2018-01-26T00:32:12.843Z,4.17
2018-01-26T00:34:41.208Z,4.17
2018-01-26T00:37:09.982Z,4.03
2018-01-26T00:39:38.342Z,4.60
2018-01-26T00:42:06.734Z,4.37
2018-01-26T00:44:35.199Z,4.57
2018-01-26T00:47:03.573Z,4.60
2018-01-26T00:49:32.270Z,5.17
2018-01-26T00:52:00.668Z,4.30
2018-01-26T00:54:29.163Z,4.93
2018-01-26T00:56:57.515Z,4.73
2018-01-26T00:59:26.214Z,5.43
2018-01-26T01:01:54.592Z,5.53
2018-01-26T01:04:23.060Z,5.90
2018-01-26T01:06:51.440Z,6.23
2018-01-26T01:09:19.818Z,4.03
2018-01-26T01:11:48.274Z,6.40
2018-01-26T01:14:16.654Z,4.53
2018-01-26T01:16:45.054Z,4.60
2018-01-26T01:19:13.432Z,5.03
2018-01-26T01:21:41.791Z,4.93
2018-01-26T01:24:10.243Z,6.47
2018-01-26T01:26:38.638Z,7.40
2018-01-26T01:29:07.003Z,4.77
2018-01-26T01:31:35.377Z,5.63
2018-01-26T01:34:03.770Z,4.40
2018-01-26T01:36:32.490Z,7.23
2018-01-26T01:39:00.886Z,4.63
2018-01-26T01:41:29.254Z,7.13
2018-01-26T01:43:57.686Z,4.80
2018-01-26T01:46:26.126Z,6.77
2018-01-26T01:49:06.292Z,6.40
2018-01-26T01:51:35.038Z,5.73
2018-01-26T01:54:03.494Z,9.03
2018-01-26T01:56:31.889Z,5.70
2018-01-26T01:59:00.273Z,7.10
2018-01-26T02:01:28.943Z,5.60
2018-01-26T02:03:57.318Z,5.53
2018-01-26T02:06:25.703Z,7.57
2018-01-26T02:08:54.090Z,8.37
2018-01-26T02:11:22.478Z,7.90
2018-01-26T02:13:51.191Z,7.77
2018-01-26T02:16:23.009Z,7.73
2018-01-26T02:18:51.501Z,6.23
2018-01-26T02:21:19.863Z,12.30
2018-01-26T02:24:05.675Z,6.07
2018-01-26T02:26:39.907Z,8.90
2018-01-26T02:29:08.365Z,4.00
2018-01-26T02:31:36.830Z,6.03
2018-01-26T02:34:05.647Z,8.03
2018-01-26T02:36:34.052Z,8.70
2018-01-26T02:39:02.418Z,6.27
2018-01-26T02:41:30.892Z,7.03
2018-01-26T02:43:59.274Z,8.77
2018-01-26T02:46:28.043Z,6.90
2018-01-26T02:48:56.436Z,12.40
2018-01-26T02:51:24.819Z,7.30
2018-01-26T02:53:53.219Z,15.93
2018-01-26T02:56:21.639Z,17.43
2018-01-26T02:58:50.299Z,16.93
2018-01-26T03:01:18.683Z,12.50
2018-01-26T03:03:47.107Z,14.03
2018-01-26T03:06:15.487Z,17.57
2018-01-26T03:08:43.846Z,15.03
2018-01-26T03:11:12.552Z,9.83
2018-01-26T03:13:41.027Z,9.47
2018-01-26T03:16:09.379Z,8.10
2018-01-26T03:18:37.784Z,10.73
2018-01-26T03:21:06.522Z,14.03
2018-01-26T03:23:34.913Z,15.87
2018-01-26T03:26:03.296Z,9.93
2018-01-26T03:28:31.676Z,10.23
2018-01-26T03:31:00.064Z,14.10
2018-01-26T03:33:28.582Z,10.00
2018-01-26T03:35:57.022Z,16.50
2018-01-26T03:38:25.426Z,16.93
2018-01-26T03:40:53.863Z,11.83
2018-01-26T03:43:22.238Z,8.80
2018-01-26T03:45:50.650Z,11.73
2018-01-26T03:48:19.049Z,17.20
2018-01-26T03:50:47.399Z,17.80
2018-01-26T03:53:16.183Z,20.77
2018-01-26T03:55:44.550Z,20.83
2018-01-26T03:58:12.929Z,20.10
2018-01-26T04:00:41.629Z,16.97
2018-01-26T04:03:09.992Z,18.80
2018-01-26T04:05:38.394Z,18.67
2018-01-26T04:08:07.215Z,19.20
2018-01-26T04:10:35.606Z,23.50
2018-01-26T04:13:04.009Z,18.80
2018-01-26T04:15:32.396Z,18.87
2018-01-26T04:18:00.775Z,18.90
2018-01-26T04:20:29.182Z,15.77
2018-01-26T04:22:57.882Z,15.10
2018-01-26T04:25:26.360Z,21.27
2018-01-26T04:27:54.755Z,20.73
2018-01-26T04:30:23.273Z,23.83
2018-01-26T04:32:51.664Z,26.20
2018-01-26T04:35:20.094Z,26.27
2018-01-26T04:37:48.446Z,16.97
2018-01-26T04:40:16.882Z,17.50
2018-01-26T04:42:45.320Z,20.30
2018-01-26T04:45:13.712Z,19.23
2018-01-26T04:47:42.091Z,23.23
2018-01-26T04:50:10.482Z,26.03
2018-01-26T04:52:38.886Z,23.50
2018-01-26T04:55:07.294Z,29.50
2018-01-26T04:57:35.795Z,28.23
2018-01-26T05:00:04.164Z,21.63
2018-01-26T05:02:32.552Z,24.70
2018-01-26T05:05:00.958Z,20.53
2018-01-26T05:07:29.383Z,20.03
2018-01-26T05:09:57.835Z,20.47
2018-01-26T05:12:26.233Z,25.93
2018-01-26T05:14:54.685Z,31.67
2018-01-26T05:17:23.097Z,25.50
2018-01-26T05:19:51.494Z,21.63
2018-01-26T05:22:20.230Z,28.77
2018-01-26T05:24:48.734Z,23.67
2018-01-26T05:27:17.136Z,25.63
2018-01-26T05:29:45.526Z,29.03
2018-01-26T05:32:13.970Z,24.27
2018-01-26T05:34:42.356Z,24.43
2018-01-26T05:37:10.763Z,24.60
2018-01-26T05:39:39.202Z,29.20
2018-01-26T05:42:07.613Z,29.10
2018-01-26T05:44:36.076Z,26.10
2018-01-26T05:47:04.486Z,27.57
2018-01-26T05:49:32.843Z,22.80
2018-01-26T05:52:01.241Z,25.37
2018-01-26T05:54:29.634Z,23.07
2018-01-26T05:56:58.103Z,31.53
2018-01-26T05:59:26.544Z,21.33
2018-01-26T06:01:54.932Z,37.37
2018-01-26T06:07:23.585Z,26.33
2018-01-26T06:09:51.985Z,40.50
2018-01-26T06:12:20.481Z,27.17
2018-01-26T06:14:48.878Z,23.60
2018-01-26T06:17:17.358Z,26.00
2018-01-26T06:19:46.050Z,29.93
2018-01-26T06:22:14.446Z,23.50
2018-01-26T06:24:42.907Z,22.63
2018-01-26T06:27:11.314Z,19.83
2018-01-26T06:29:39.726Z,22.90
2018-01-26T06:32:08.422Z,31.00
2018-01-26T06:34:36.811Z,27.03
2018-01-26T06:37:05.204Z,46.90
2018-01-26T06:39:33.599Z,39.07
2018-01-26T06:42:01.998Z,38.90
2018-01-26T06:44:30.470Z,42.67
2018-01-26T06:46:58.855Z,34.57
2018-01-26T06:49:27.307Z,27.63
2018-01-26T06:51:55.758Z,32.90
2018-01-26T06:54:24.150Z,28.33
2018-01-26T06:56:52.692Z,30.53
2018-01-26T06:59:21.088Z,27.53
2018-01-26T07:01:49.480Z,27.63
2018-01-26T07:04:17.870Z,19.77
2018-01-26T07:06:46.289Z,26.77
2018-01-26T07:09:14.983Z,21.43
2018-01-26T07:11:43.383Z,28.40
2018-01-26T07:14:11.798Z,27.90
2018-01-26T07:16:40.266Z,18.13
2018-01-26T07:19:08.686Z,21.60
2018-01-26T07:21:37.134Z,24.03
2018-01-26T07:24:05.547Z,25.77
2018-01-26T07:26:33.985Z,27.40
2018-01-26T07:29:02.378Z,25.77
2018-01-26T07:31:30.793Z,30.57
2018-01-26T07:33:59.248Z,27.50
2018-01-26T07:36:27.644Z,25.77
2018-01-26T07:38:56.034Z,21.37
2018-01-26T07:41:24.434Z,17.57
2018-01-26T07:43:52.845Z,22.93
2018-01-26T07:46:21.610Z,18.43
2018-01-26T07:48:50.014Z,29.57
2018-01-26T07:51:18.419Z,21.10
2018-01-26T07:53:46.839Z,14.63
2018-01-26T07:56:15.230Z,17.87
2018-01-26T07:58:43.676Z,21.17
2018-01-26T08:01:12.082Z,16.60
2018-01-26T08:03:40.558Z,16.80
2018-01-26T08:06:08.956Z,17.97
2018-01-26T08:08:37.351Z,18.67
2018-01-26T08:11:05.803Z,19.80
2018-01-26T08:13:34.202Z,18.73
2018-01-26T08:16:15.449Z,22.30
2018-01-26T08:18:43.926Z,22.57
2018-01-26T08:21:12.334Z,25.93
2018-01-26T08:23:40.747Z,25.77
2018-01-26T08:26:09.202Z,24.00
2018-01-26T08:28:37.649Z,26.40
2018-01-26T08:31:06.034Z,17.90
2018-01-26T08:33:34.438Z,20.83
2018-01-26T08:36:02.867Z,24.53
2018-01-26T08:38:31.272Z,20.13
2018-01-26T08:41:00.043Z,15.53
2018-01-26T08:43:29.986Z,11.37
2018-01-26T08:45:58.395Z,13.87
2018-01-26T08:48:26.800Z,17.97
2018-01-26T08:50:55.241Z,18.53
2018-01-26T08:53:23.963Z,17.50
2018-01-26T08:55:52.353Z,18.77
2018-01-26T08:58:20.754Z,16.60
2018-01-26T09:00:49.138Z,23.47
2018-01-26T09:03:17.602Z,15.83
2018-01-26T09:05:46.210Z,16.70
2018-01-26T09:08:14.603Z,14.40
2018-01-26T09:10:43.000Z,20.50
2018-01-26T09:13:11.407Z,17.27
2018-01-26T09:15:39.827Z,17.23
2018-01-26T09:18:08.276Z,16.10
2018-01-26T09:20:36.730Z,13.97
2018-01-26T09:23:05.085Z,15.43
2018-01-26T09:25:33.559Z,14.43
2018-01-26T09:28:01.981Z,15.87
2018-01-26T09:30:30.700Z,19.80
2018-01-26T09:32:59.067Z,16.53
2018-01-26T09:35:27.467Z,10.93
2018-01-26T09:37:55.923Z,13.60
2018-01-26T09:40:24.328Z,14.93
2018-01-26T09:42:53.065Z,19.73
2018-01-26T09:45:21.458Z,16.20
2018-01-26T09:47:49.863Z,16.13
2018-01-26T09:50:20.974Z,18.87
2018-01-26T09:52:49.362Z,17.20
2018-01-26T09:55:17.808Z,15.90
2018-01-26T09:57:46.189Z,17.60
2018-01-26T10:00:14.633Z,13.53
2018-01-26T10:02:43.098Z,16.80
2018-01-26T10:05:11.548Z,14.00
2018-01-26T10:07:40.204Z,15.37
2018-01-26T10:10:08.595Z,16.57
2018-01-26T10:12:37.017Z,12.07
2018-01-26T10:15:05.496Z,14.43
2018-01-26T10:17:33.898Z,12.53
2018-01-26T10:20:02.615Z,16.10
2018-01-26T10:22:31.008Z,15.03
2018-01-26T10:24:59.382Z,16.60
2018-01-26T10:27:27.787Z,12.60
2018-01-26T10:29:56.178Z,13.83
2018-01-26T10:32:24.719Z,16.60
2018-01-26T10:34:53.123Z,14.10
2018-01-26T10:37:21.537Z,12.10
2018-01-26T10:39:49.945Z,15.63
2018-01-26T10:42:18.402Z,14.53
2018-01-26T10:44:46.874Z,13.87
2018-01-26T10:47:15.279Z,13.23
2018-01-26T10:49:43.672Z,12.40
2018-01-26T10:52:12.079Z,16.17
2018-01-26T10:54:40.463Z,18.50
2018-01-26T10:57:09.074Z,18.80
2018-01-26T10:59:37.462Z,18.10
2018-01-26T11:02:05.843Z,19.77
2018-01-26T11:04:34.240Z,16.93
2018-01-26T11:07:02.640Z,15.50
2018-01-26T11:09:31.454Z,12.73
2018-01-26T11:11:59.911Z,16.90
2018-01-26T11:14:28.314Z,15.80
2018-01-26T11:16:56.715Z,13.53
2018-01-26T11:19:25.214Z,14.47
2018-01-26T11:21:53.657Z,12.13
2018-01-26T11:24:22.039Z,16.40
2018-01-26T11:26:50.435Z,16.30
2018-01-26T11:29:18.838Z,11.47
2018-01-26T11:31:47.234Z,14.60
2018-01-26T11:34:15.695Z,15.47
2018-01-26T11:36:44.083Z,10.70
2018-01-26T11:39:12.546Z,16.10
2018-01-26T11:41:40.931Z,18.53
2018-01-26T11:44:09.347Z,10.67
2018-01-26T11:46:38.140Z,14.57
2018-01-26T11:49:06.632Z,14.73
2018-01-26T11:51:36.010Z,17.33
2018-01-26T11:54:04.407Z,14.47
2018-01-26T11:56:32.807Z,13.40
2018-01-26T11:59:01.319Z,10.93
2018-01-26T12:01:29.710Z,12.37
2018-01-26T12:03:58.121Z,9.83
2018-01-26T12:06:26.522Z,13.03
2018-01-26T12:08:54.920Z,10.40
2018-01-26T12:11:23.743Z,11.10
2018-01-26T12:13:52.219Z,12.13
2018-01-26T12:16:20.615Z,10.20
2018-01-26T12:18:49.031Z,13.77
2018-01-26T12:21:17.422Z,15.20
2018-01-26T12:23:45.880Z,12.10
2018-01-26T12:26:14.302Z,14.87
2018-01-26T12:28:42.707Z,16.83
2018-01-26T12:31:11.182Z,11.90
2018-01-26T12:33:39.571Z,11.33
2018-01-26T12:36:08.367Z,11.77
2018-01-26T12:38:36.760Z,11.20
2018-01-26T12:41:05.215Z,9.87
2018-01-26T12:43:33.586Z,15.37
2018-01-26T12:46:01.979Z,18.77
2018-01-26T12:48:30.822Z,16.50
2018-01-26T12:50:59.263Z,10.40
2018-01-26T12:53:27.693Z,12.37
2018-01-26T12:55:56.083Z,14.10
2018-01-26T12:58:24.485Z,20.50
2018-01-26T13:00:54.017Z,18.77
2018-01-26T13:03:22.412Z,17.07
2018-01-26T13:05:50.817Z,18.83
2018-01-26T13:08:19.257Z,22.40
2018-01-26T13:10:47.655Z,15.57
2018-01-26T13:13:16.263Z,19.60
2018-01-26T13:15:44.660Z,15.57
2018-01-26T13:18:13.079Z,15.60
2018-01-26T13:20:41.466Z,10.37
2018-01-26T13:23:09.951Z,21.13
2018-01-26T13:25:38.399Z,13.53
2018-01-26T13:28:06.792Z,16.83
2018-01-26T13:30:35.197Z,24.43
2018-01-26T13:33:03.578Z,15.33
2018-01-26T13:35:31.990Z,17.20
2018-01-26T13:38:00.447Z,12.40
2018-01-26T13:40:28.931Z,12.27
2018-01-26T13:42:57.357Z,15.17
2018-01-26T13:45:25.763Z,16.67
2018-01-26T13:47:54.177Z,17.33
2018-01-26T13:50:22.970Z,16.30
2018-01-26T13:52:51.361Z,19.10
2018-01-26T13:55:19.767Z,14.20
2018-01-26T13:57:48.167Z,11.90
2018-01-26T14:00:16.579Z,15.90
2018-01-26T14:02:45.302Z,14.17
2018-01-26T14:05:13.696Z,15.40
2018-01-26T14:07:42.135Z,19.53
2018-01-26T14:10:10.543Z,18.37
2018-01-26T14:12:38.947Z,22.43
2018-01-26T14:15:07.641Z,15.87
2018-01-26T14:17:36.029Z,14.77
2018-01-26T14:20:04.427Z,17.63
2018-01-26T14:22:32.809Z,18.77
2018-01-26T14:25:01.198Z,26.53
2018-01-26T14:27:30.059Z,24.17
2018-01-26T14:29:58.454Z,24.07
2018-01-26T14:32:26.876Z,27.60
2018-01-26T14:34:55.270Z,16.97
2018-01-26T14:37:23.758Z,17.73
2018-01-26T14:39:52.492Z,23.30
2018-01-26T14:42:20.910Z,19.53
2018-01-26T14:44:49.290Z,26.90
2018-01-26T14:47:17.706Z,29.57
2018-01-26T14:49:46.116Z,27.30
2018-01-26T14:52:14.630Z,19.40
2018-01-26T14:54:43.023Z,24.50
2018-01-26T14:57:11.419Z,23.03
2018-01-26T14:59:39.826Z,25.50
2018-01-26T15:02:08.221Z,22.83
2018-01-26T15:04:36.943Z,20.77
2018-01-26T15:07:05.341Z,22.57
2018-01-26T15:09:33.743Z,22.07
2018-01-26T15:12:02.228Z,25.53
2018-01-26T15:14:30.656Z,20.47
2018-01-26T15:16:59.115Z,24.57
2018-01-26T15:19:27.532Z,34.40
2018-01-26T15:21:55.934Z,32.77
2018-01-26T15:24:24.349Z,18.00
2018-01-26T15:26:52.749Z,26.20
2018-01-26T15:29:21.235Z,16.20
2018-01-26T15:31:49.662Z,36.57
2018-01-26T15:34:18.068Z,26.93
2018-01-26T15:36:46.518Z,28.47
2018-01-26T15:39:16.770Z,26.63
2018-01-26T15:41:47.158Z,25.47
2018-01-26T15:44:15.562Z,23.33
2018-01-26T15:46:43.956Z,27.13
2018-01-26T15:49:12.357Z,27.50
2018-01-26T15:51:40.764Z,31.60
2018-01-26T15:54:09.534Z,28.70
2018-01-26T15:56:37.937Z,30.70
2018-01-26T15:59:06.530Z,37.20
2018-01-26T16:01:34.923Z,26.60
2018-01-26T16:04:03.415Z,30.10
2018-01-26T16:06:31.892Z,29.20
2018-01-26T16:09:00.313Z,33.10
2018-01-26T16:11:28.730Z,30.83
2018-01-26T16:13:57.143Z,39.40
2018-01-26T16:16:25.622Z,25.17
2018-01-26T16:18:54.102Z,29.07
2018-01-26T16:21:22.528Z,32.73
2018-01-26T16:23:50.918Z,32.97
2018-01-26T16:26:19.353Z,34.17
2018-01-26T16:28:47.746Z,34.70
2018-01-26T16:31:16.363Z,25.27
2018-01-26T16:33:44.763Z,31.20
2018-01-26T16:36:13.172Z,26.27
2018-01-26T16:38:41.554Z,37.47
2018-01-26T16:41:09.950Z,26.63
2018-01-26T16:43:38.418Z,30.00
2018-01-26T16:46:06.823Z,34.53
2018-01-26T16:48:35.283Z,33.10
2018-01-26T16:51:03.702Z,28.00
2018-01-26T16:53:32.090Z,37.57
2018-01-26T16:56:00.850Z,31.30
2018-01-26T16:58:29.292Z,31.97
2018-01-26T17:00:57.698Z,26.50
2018-01-26T17:03:26.114Z,38.83
2018-01-26T17:05:54.510Z,25.47
2018-01-26T17:08:23.226Z,23.93
2018-01-26T17:10:51.648Z,27.67
2018-01-26T17:13:20.054Z,25.10
2018-01-26T17:15:48.518Z,22.37
2018-01-26T17:18:16.922Z,34.87
2018-01-26T17:20:45.830Z,43.37
2018-01-26T17:23:14.240Z,31.20
2018-01-26T17:25:42.646Z,27.17
2018-01-26T17:28:11.083Z,35.90
2018-01-26T17:30:39.508Z,27.63
2018-01-26T17:33:08.062Z,30.33
2018-01-26T17:35:36.466Z,30.80
2018-01-26T17:38:05.278Z,27.83
2018-01-26T17:40:33.690Z,20.27
2018-01-26T17:43:02.200Z,22.77
2018-01-26T17:45:30.638Z,31.87
2018-01-26T17:47:59.026Z,44.20
2018-01-26T17:50:27.470Z,29.30
2018-01-26T17:52:55.868Z,33.20
2018-01-26T17:55:24.253Z,40.53
2018-01-26T17:57:52.682Z,34.63
2018-01-26T18:00:21.142Z,29.98
2018-01-26T18:02:49.957Z,39.07
2018-01-26T18:05:18.350Z,32.20
2018-01-26T18:07:46.757Z,32.73
2018-01-26T18:10:15.160Z,31.47
2018-01-26T18:12:43.632Z,32.13
2018-01-26T18:15:12.119Z,48.57
2018-01-26T18:17:40.606Z,30.33
2018-01-26T18:20:09.014Z,31.60
2018-01-26T18:25:37.798Z,31.48
2018-01-26T18:28:06.522Z,33.20
2018-01-26T18:30:34.904Z,45.67
2018-01-26T18:33:03.294Z,35.07
2018-01-26T18:35:31.700Z,24.75
2018-01-26T18:38:00.096Z,36.10
2018-01-26T18:40:28.493Z,33.40
2018-01-26T18:42:56.894Z,38.67
2018-01-26T18:45:27.715Z,32.50
2018-01-26T18:47:56.295Z,30.67
2018-01-26T18:50:24.802Z,35.30
2018-01-26T18:52:53.348Z,30.30
2018-01-26T18:55:21.855Z,31.23
2018-01-26T18:57:50.287Z,28.23
2018-01-26T19:00:18.747Z,28.15
2018-01-26T19:02:47.154Z,25.92
2018-01-26T19:05:15.564Z,38.03
2018-01-26T19:07:44.048Z,26.25
2018-01-26T19:10:12.455Z,24.67
2018-01-26T19:12:41.015Z,31.05
2018-01-26T19:15:10.093Z,27.87
2018-01-26T19:17:39.490Z,24.85
2018-01-26T19:20:08.307Z,39.58
2018-01-26T19:22:36.795Z,33.00
2018-01-26T19:25:05.206Z,27.93
2018-01-26T19:27:33.691Z,33.40
2018-01-26T19:30:02.095Z,31.07
2018-01-26T19:32:30.554Z,33.83
2018-01-26T19:34:58.988Z,28.80
2018-01-26T19:37:27.393Z,27.77
2018-01-26T19:39:56.079Z,27.23
2018-01-26T19:42:24.526Z,25.07
2018-01-26T19:44:52.932Z,21.97
2018-01-26T19:47:21.419Z,32.33
2018-01-26T19:49:49.835Z,32.45
2018-01-26T19:52:18.551Z,28.83
2018-01-26T19:54:46.962Z,32.30
2018-01-26T19:57:15.398Z,22.30
2018-01-26T19:59:43.843Z,23.97
2018-01-26T20:02:12.236Z,23.13
2018-01-26T20:04:46.364Z,29.27
2018-01-26T20:07:29.174Z,23.83
2018-01-26T20:09:57.978Z,22.67
2018-01-26T20:12:27.162Z,25.00
2018-01-26T20:14:55.628Z,23.10
2018-01-26T20:17:24.150Z,26.83
2018-01-26T20:19:52.606Z,24.70
2018-01-26T20:22:21.071Z,20.90
2018-01-26T20:24:49.566Z,26.02
2018-01-26T20:27:18.164Z,29.87
2018-01-26T20:29:46.662Z,27.37
2018-01-26T20:32:19.962Z,23.73
2018-01-26T20:34:48.458Z,24.47
2018-01-26T20:37:16.849Z,31.67
2018-01-26T20:39:45.215Z,26.07
2018-01-26T20:42:13.637Z,30.20
2018-01-26T20:44:42.039Z,22.40
2018-01-26T20:47:10.754Z,29.43
2018-01-26T20:49:39.241Z,26.47
2018-01-26T20:52:07.649Z,28.47
2018-01-26T20:54:36.380Z,25.03
2018-01-26T20:57:04.983Z,28.87
2018-01-26T20:59:33.403Z,30.73
2018-01-26T21:02:01.878Z,27.47
2018-01-26T21:04:30.304Z,30.93
2018-01-26T21:06:58.712Z,28.47
2018-01-26T21:09:27.467Z,26.80
2018-01-26T21:11:55.867Z,25.13
2018-01-26T21:14:24.387Z,22.73
2018-01-26T21:16:53.086Z,25.47
2018-01-26T21:19:21.502Z,34.67
2018-01-26T21:21:49.911Z,34.70
2018-01-26T21:24:18.604Z,36.60
2018-01-26T21:26:47.002Z,36.40
2018-01-26T21:29:15.402Z,33.97
2018-01-26T21:31:44.137Z,41.33
2018-01-26T21:34:12.595Z,35.70
2018-01-26T21:36:41.004Z,33.30
2018-01-26T21:39:09.859Z,29.77
2018-01-26T21:41:38.267Z,19.80
2018-01-26T21:44:06.669Z,21.33
2018-01-26T21:46:35.388Z,21.10
2018-01-26T21:49:03.782Z,19.70
2018-01-26T21:51:32.282Z,24.57
2018-01-26T21:54:00.861Z,30.53
2018-01-26T21:56:29.311Z,26.83
2018-01-26T21:58:57.728Z,24.43
2018-01-26T22:01:26.435Z,36.40
2018-01-26T22:03:54.830Z,29.20
2018-01-26T22:06:29.875Z,25.67
2018-01-26T22:08:58.306Z,27.40
2018-01-26T22:11:26.713Z,36.90
2018-01-26T22:13:55.533Z,26.20
2018-01-26T22:16:23.950Z,28.27
2018-01-26T22:18:52.342Z,29.23
2018-01-26T22:21:20.895Z,36.63
2018-01-26T22:23:49.291Z,35.33
2018-01-26T22:26:17.659Z,40.77
2018-01-26T22:28:46.145Z,32.83
2018-01-26T22:31:14.546Z,34.00
2018-01-26T22:33:43.160Z,30.37
2018-01-26T22:36:11.561Z,30.40
2018-01-26T22:38:39.967Z,33.03
2018-01-26T22:41:08.684Z,34.63
2018-01-26T22:43:37.103Z,35.97
2018-01-26T22:46:05.534Z,42.70
2018-01-26T22:48:34.218Z,42.43
2018-01-26T22:51:02.631Z,46.07
2018-01-26T22:53:31.043Z,48.50
2018-01-26T22:55:59.728Z,51.80
2018-01-26T22:58:28.187Z,55.13
2018-01-26T23:00:56.628Z,47.10
2018-01-26T23:03:25.524Z,43.23
2018-01-26T23:05:53.944Z,49.53
2018-01-26T23:08:22.326Z,58.17
2018-01-26T23:10:51.065Z,55.27
2018-01-26T23:13:19.474Z,46.50
2018-01-26T23:15:47.857Z,57.80
2018-01-26T23:18:16.227Z,46.13
2018-01-26T23:20:44.599Z,51.07
2018-01-26T23:23:12.970Z,52.87
2018-01-26T23:25:41.341Z,51.50
2018-01-26T23:28:09.717Z,56.63
2018-01-26T23:30:38.102Z,66.17
2018-01-26T23:33:06.483Z,59.07
2018-01-26T23:35:34.867Z,51.33
2018-01-26T23:38:03.383Z,51.00
2018-01-26T23:40:31.846Z,64.00
2018-01-26T23:43:00.275Z,56.50
2018-01-26T23:45:29.007Z,58.40
2018-01-26T23:47:57.427Z,54.00
2018-01-26T23:50:25.916Z,58.73
2018-01-26T23:52:54.378Z,55.20
2018-01-26T23:55:22.824Z,56.60
2018-01-26T23:57:51.242Z,60.43
